Time;durP1;ratioP1;P1;durP2;ratioP2;P2;SDS_P1;SDS_P2;PMS_P1;PMS_P2;Temp;Humidity;BMP_temperature;BMP_pressure;BME280_temperature;BME280_humidity;BME280_pressure;Samples;Min_cycle;Max_cycle;Signal;HPM_P1;HPM_P2
2022/11/10 00:01:30;;;;;;;16.60;9.13;;;;;;;;;;5036598;28;20137;-51
2022/11/10 00:04:03;;;;;;;16.48;8.95;;;;;;;;;;5033873;28;20114;-51
2022/11/10 00:06:31;;;;;;;20.20;9.30;;;;;;;;;;5033961;28;20128;-49
2022/11/10 00:09:02;;;;;;;16.98;8.63;;;;;;;;;;5017156;28;20567;-48
2022/11/10 00:11:29;;;;;;;18.92;9.48;;;;;;;;;;5043043;28;20068;-48
2022/11/10 00:19:41;;;;;;;11.80;6.45;;;;;;;;;;5034177;28;20421;-49
2022/11/10 00:22:09;;;;;;;16.60;8.88;;;;;;;;;;5036236;28;20144;-51
2022/11/10 00:24:36;;;;;;;17.90;7.70;;;;;;;;;;5044061;28;20128;-48
2022/11/10 00:27:04;;;;;;;15.32;7.32;;;;;;;;;;5033669;28;20063;-48
2022/11/10 00:29:32;;;;;;;15.70;7.43;;;;;;;;;;5038571;28;20534;-50
2022/11/10 00:32:02;;;;;;;13.77;6.70;;;;;;;;;;5035933;28;20133;-49
2022/11/10 00:34:43;;;;;;;16.73;7.60;;;;;;;;;;5034927;28;20138;-48
2022/11/10 00:37:10;;;;;;;13.52;6.72;;;;;;;;;;5053083;28;20476;-48
2022/11/10 00:39:37;;;;;;;13.05;6.30;;;;;;;;;;5048863;28;20048;-50
2022/11/10 00:42:05;;;;;;;14.18;7.68;;;;;;;;;;5034636;28;20088;-49
2022/11/10 00:44:33;;;;;;;12.20;6.18;;;;;;;;;;5038368;28;20081;-49
2022/11/10 00:47:01;;;;;;;13.30;6.97;;;;;;;;;;5032701;28;20132;-48
2022/11/10 00:49:29;;;;;;;13.35;6.85;;;;;;;;;;5033185;28;20049;-49
2022/11/10 00:51:59;;;;;;;13.43;5.65;;;;;;;;;;5042620;28;20440;-49
2022/11/10 00:54:29;;;;;;;12.43;6.38;;;;;;;;;;5046989;28;20072;-50
2022/11/10 00:56:55;;;;;;;15.35;7.55;;;;;;;;;;5037697;28;20466;-50
2022/11/10 00:59:22;;;;;;;13.65;6.28;;;;;;;;;;5045154;28;20135;-49
2022/11/10 01:01:49;;;;;;;12.90;6.80;;;;;;;;;;5052682;28;20056;-50
2022/11/10 01:04:17;;;;;;;14.05;6.30;;;;;;;;;;5033442;28;20049;-49
2022/11/10 01:06:46;;;;;;;13.70;6.10;;;;;;;;;;5033427;28;20539;-50
2022/11/10 01:09:31;;;;;;;13.00;5.72;;;;;;;;;;5033508;28;20049;-50
2022/11/10 01:12:02;;;;;;;11.05;5.93;;;;;;;;;;5042181;28;20450;-52
2022/11/10 01:14:31;;;;;;;13.77;6.15;;;;;;;;;;5036619;28;20055;-49
2022/11/10 01:16:59;;;;;;;12.85;6.45;;;;;;;;;;5032736;28;20068;-48
2022/11/10 01:19:29;;;;;;;11.07;5.95;;;;;;;;;;5033121;28;20128;-51
2022/11/10 01:21:56;;;;;;;14.63;6.82;;;;;;;;;;5035751;28;20057;-49
2022/11/10 01:24:39;;;;;;;11.73;5.88;;;;;;;;;;5052973;28;20073;-51
2022/11/10 01:27:08;;;;;;;10.38;5.45;;;;;;;;;;5038731;28;20064;-50
2022/11/10 01:29:35;;;;;;;14.23;6.70;;;;;;;;;;5038500;28;20072;-50
2022/11/10 01:32:05;;;;;;;12.68;6.18;;;;;;;;;;5034930;28;20088;-51
2022/11/10 01:34:33;;;;;;;10.85;5.63;;;;;;;;;;5033637;28;20073;-49
2022/11/10 01:37:03;;;;;;;9.85;5.05;;;;;;;;;;5033392;28;20057;-51
2022/11/10 01:39:39;;;;;;;13.45;6.65;;;;;;;;;;5033363;28;20369;-49
2022/11/10 01:42:07;;;;;;;14.15;7.15;;;;;;;;;;5037113;28;20050;-49
2022/11/10 01:44:35;;;;;;;13.35;6.10;;;;;;;;;;5036207;28;20108;-48
2022/11/10 01:47:05;;;;;;;15.65;7.03;;;;;;;;;;5031815;28;20054;-52
2022/11/10 01:49:34;;;;;;;10.57;5.68;;;;;;;;;;5033499;28;20133;-49
2022/11/10 01:52:05;;;;;;;13.13;6.22;;;;;;;;;;5044480;28;20063;-48
2022/11/10 01:54:36;;;;;;;11.90;5.78;;;;;;;;;;5046934;28;20133;-50
2022/11/10 01:57:06;;;;;;;9.85;5.30;;;;;;;;;;5042319;28;20170;-49
2022/11/10 01:59:36;;;;;;;9.85;5.28;;;;;;;;;;5036639;28;20120;-49
2022/11/10 02:02:07;;;;;;;12.65;5.38;;;;;;;;;;5038861;28;20163;-51
2022/11/10 02:04:35;;;;;;;11.88;5.78;;;;;;;;;;5039212;28;20103;-49
2022/11/10 02:07:02;;;;;;;8.50;4.75;;;;;;;;;;5039278;28;20052;-51
2022/11/10 02:09:30;;;;;;;12.60;5.80;;;;;;;;;;5039047;28;20041;-50
2022/11/10 02:12:07;;;;;;;10.95;5.75;;;;;;;;;;5051154;28;20053;-49
2022/11/10 02:14:35;;;;;;;10.80;5.90;;;;;;;;;;5046811;28;20049;-49
2022/11/10 02:17:03;;;;;;;10.73;5.35;;;;;;;;;;5041401;28;20128;-49
2022/11/10 02:19:30;;;;;;;13.38;6.03;;;;;;;;;;5048855;28;20045;-50
2022/11/10 02:22:14;;;;;;;9.40;5.30;;;;;;;;;;5039838;28;20124;-53
2022/11/10 02:24:41;;;;;;;11.27;5.47;;;;;;;;;;5051593;28;20060;-49
2022/11/10 02:27:09;;;;;;;11.00;5.47;;;;;;;;;;5051617;28;20132;-51
2022/11/10 02:29:37;;;;;;;9.23;5.05;;;;;;;;;;5044390;28;20710;-51
2022/11/10 02:32:07;;;;;;;9.32;4.50;;;;;;;;;;5048619;28;20473;-49
2022/11/10 02:34:36;;;;;;;12.10;5.22;;;;;;;;;;5058072;28;20056;-49
2022/11/10 02:37:18;;;;;;;10.00;4.57;;;;;;;;;;5049617;28;20049;-52
2022/11/10 02:39:46;;;;;;;7.93;4.47;;;;;;;;;;5047004;28;20071;-51
2022/11/10 02:42:16;;;;;;;12.25;4.65;;;;;;;;;;5058583;28;20095;-51
2022/11/10 02:44:45;;;;;;;10.50;4.22;;;;;;;;;;5045384;28;20064;-50
2022/11/10 02:47:15;;;;;;;10.43;4.50;;;;;;;;;;5045338;28;20057;-49
2022/11/10 02:49:43;;;;;;;8.10;4.35;;;;;;;;;;5038925;28;20154;-49
2022/11/10 02:52:13;;;;;;;9.65;4.97;;;;;;;;;;5060753;28;20078;-49
2022/11/10 02:54:43;;;;;;;8.52;4.72;;;;;;;;;;5050606;28;20136;-49
2022/11/10 02:57:12;;;;;;;10.40;4.53;;;;;;;;;;5056037;28;20057;-49
2022/11/10 02:59:41;;;;;;;9.93;4.78;;;;;;;;;;5046828;28;20175;-52
2022/11/10 03:02:08;;;;;;;9.80;4.75;;;;;;;;;;5057713;28;20525;-49
2022/11/10 03:04:35;;;;;;;8.35;4.35;;;;;;;;;;5049781;28;20049;-49
2022/11/10 03:07:05;;;;;;;9.52;4.45;;;;;;;;;;5038164;28;20064;-49
2022/11/10 03:09:35;;;;;;;8.95;4.15;;;;;;;;;;5052224;28;20090;-51
2022/11/10 03:12:03;;;;;;;9.23;4.32;;;;;;;;;;5045792;28;20052;-49
2022/11/10 03:14:30;;;;;;;7.75;4.20;;;;;;;;;;5043376;28;20103;-50
2022/11/10 03:16:58;;;;;;;10.20;4.72;;;;;;;;;;5035309;28;20053;-49
2022/11/10 03:19:44;;;;;;;8.10;3.80;;;;;;;;;;5035182;28;20457;-50
2022/11/10 03:22:13;;;;;;;10.25;4.75;;;;;;;;;;5038208;28;20136;-49
2022/11/10 03:24:53;;;;;;;7.30;4.10;;;;;;;;;;5047331;28;20052;-51
2022/11/10 03:27:21;;;;;;;7.80;4.60;;;;;;;;;;5035270;28;20136;-48
2022/11/10 03:29:48;;;;;;;11.65;5.10;;;;;;;;;;5035168;28;20085;-49
2022/11/10 03:32:15;;;;;;;10.57;4.65;;;;;;;;;;5037519;28;20287;-50
2022/11/10 03:34:43;;;;;;;8.23;4.53;;;;;;;;;;5034982;28;20045;-49
2022/11/10 03:37:13;;;;;;;11.80;5.13;;;;;;;;;;5044722;28;20485;-49
2022/11/10 03:39:44;;;;;;;8.43;4.70;;;;;;;;;;5047691;28;20049;-49
2022/11/10 03:42:11;;;;;;;10.02;4.63;;;;;;;;;;5053516;28;20045;-49
2022/11/10 03:44:39;;;;;;;10.55;5.15;;;;;;;;;;5047639;28;20135;-49
2022/11/10 03:47:07;;;;;;;10.93;4.88;;;;;;;;;;5034827;28;20132;-49
2022/11/10 03:49:34;;;;;;;8.98;5.00;;;;;;;;;;5046674;28;20056;-50
2022/11/10 03:52:02;;;;;;;10.40;4.50;;;;;;;;;;5037739;28;20120;-49
2022/11/10 03:54:30;;;;;;;12.48;5.72;;;;;;;;;;5044109;28;20335;-49
2022/11/10 03:56:59;;;;;;;9.95;5.60;;;;;;;;;;5045029;28;20053;-52
2022/11/10 03:59:26;;;;;;;9.85;5.35;;;;;;;;;;5048820;28;20443;-50
2022/11/10 04:01:55;;;;;;;11.60;5.15;;;;;;;;;;5045398;28;20141;-49
2022/11/10 04:09:54;;;;;;;10.05;5.25;;;;;;;;;;5040190;28;20087;-52
2022/11/10 04:18:19;;;;;;;10.98;5.50;;;;;;;;;;5034068;28;20052;-50
2022/11/10 04:20:46;;;;;;;14.65;7.10;;;;;;;;;;5034209;28;20458;-48
2022/11/10 04:23:33;;;;;;;12.20;5.93;;;;;;;;;;5045050;28;20161;-48
2022/11/10 04:28:57;;;;;;;;;;;;;;;;;;5034098;28;20192;-49
2022/11/10 04:31:29;;;;;;;14.27;6.53;;;;;;;;;;5052117;28;19928;-51
2022/11/10 04:33:59;;;;;;;11.77;6.07;;;;;;;;;;5052628;28;20469;-51
2022/11/10 04:36:28;;;;;;;11.52;5.65;;;;;;;;;;5038229;28;20068;-49
2022/11/10 04:38:56;;;;;;;12.88;5.78;;;;;;;;;;5039734;28;20665;-49
2022/11/10 04:41:26;;;;;;;13.23;5.80;;;;;;;;;;5052932;28;20129;-49
2022/11/10 04:43:56;;;;;;;15.45;7.03;;;;;;;;;;5049947;28;20144;-49
2022/11/10 04:46:30;;;;;;;10.90;5.50;;;;;;;;;;5039672;28;20042;-48
2022/11/10 04:48:58;;;;;;;11.93;6.22;;;;;;;;;;5049701;28;20528;-49
2022/11/10 04:51:27;;;;;;;18.38;7.60;;;;;;;;;;5045011;28;20049;-48
2022/11/10 04:53:55;;;;;;;16.45;8.05;;;;;;;;;;5052707;28;20524;-52
2022/11/10 04:56:33;;;;;;;14.80;5.78;;;;;;;;;;5042068;28;20049;-49
2022/11/10 04:59:02;;;;;;;10.38;5.45;;;;;;;;;;5040251;28;20129;-48
2022/11/10 05:01:31;;;;;;;12.13;6.03;;;;;;;;;;5038984;28;20494;-50
2022/11/10 05:03:58;;;;;;;14.27;5.80;;;;;;;;;;5038876;28;20140;-50
2022/11/10 05:06:28;;;;;;;14.68;7.03;;;;;;;;;;5051884;28;20253;-49
2022/11/10 05:11:37;;;;;;;11.15;4.95;;;;;;;;;;5039301;28;20493;-49
2022/11/10 05:14:04;;;;;;;13.60;6.07;;;;;;;;;;5043478;28;20136;-49
2022/11/10 05:16:33;;;;;;;20.55;8.73;;;;;;;;;;5035509;28;20128;-51
2022/11/10 05:19:04;;;;;;;13.30;6.10;;;;;;;;;;5035012;28;20136;-49
2022/11/10 05:21:33;;;;;;;10.02;5.18;;;;;;;;;;5037457;28;20638;-51
2022/11/10 05:24:01;;;;;;;9.65;5.43;;;;;;;;;;5037940;28;20119;-50
2022/11/10 05:26:29;;;;;;;12.98;5.80;;;;;;;;;;5033569;28;20136;-49
2022/11/10 05:28:56;;;;;;;18.85;6.97;;;;;;;;;;5032893;28;20164;-51
2022/11/10 05:31:26;;;;;;;24.90;8.73;;;;;;;;;;5037100;28;20567;-49
2022/11/10 05:34:06;;;;;;;15.13;6.40;;;;;;;;;;5042349;28;20059;-51
2022/11/10 05:36:33;;;;;;;12.68;5.32;;;;;;;;;;5042543;28;20051;-50
2022/11/10 05:39:03;;;;;;;13.80;5.47;;;;;;;;;;5033528;28;20075;-48
2022/11/10 05:41:33;;;;;;;23.83;8.75;;;;;;;;;;5033754;28;20563;-51
2022/11/10 05:44:03;;;;;;;26.42;9.30;;;;;;;;;;5032420;28;20045;-51
2022/11/10 05:46:30;;;;;;;15.90;6.55;;;;;;;;;;5032192;28;20055;-49
2022/11/10 05:49:11;;;;;;;9.45;4.75;;;;;;;;;;5048258;28;20409;-52
2022/11/10 05:51:40;;;;;;;11.57;4.32;;;;;;;;;;5041119;28;20140;-50
2022/11/10 05:54:09;;;;;;;6.80;3.85;;;;;;;;;;5040545;28;20183;-50
2022/11/10 05:56:37;;;;;;;9.32;4.43;;;;;;;;;;5026463;28;20053;-50
2022/11/10 05:59:05;;;;;;;8.27;4.03;;;;;;;;;;5039451;28;20085;-48
2022/11/10 06:01:33;;;;;;;7.80;4.43;;;;;;;;;;5038481;28;20084;-48
2022/11/10 06:04:02;;;;;;;7.00;3.65;;;;;;;;;;5049425;28;20385;-50
2022/11/10 06:06:30;;;;;;;8.75;4.30;;;;;;;;;;5037312;28;20128;-51
2022/11/10 06:08:59;;;;;;;8.68;4.47;;;;;;;;;;5039544;28;20135;-52
2022/11/10 06:11:27;;;;;;;12.48;4.40;;;;;;;;;;5049266;28;20053;-50
2022/11/10 06:13:57;;;;;;;10.48;4.90;;;;;;;;;;5041456;28;20398;-49
2022/11/10 06:16:27;;;;;;;9.90;5.18;;;;;;;;;;5035793;28;20049;-49
2022/11/10 06:18:54;;;;;;;10.13;4.82;;;;;;;;;;5050713;28;20136;-52
2022/11/10 06:21:34;;;;;;;8.30;4.40;;;;;;;;;;5034180;28;20052;-48
2022/11/10 06:24:04;;;;;;;8.98;4.82;;;;;;;;;;5049582;28;20067;-48
2022/11/10 06:26:32;;;;;;;9.13;4.10;;;;;;;;;;5039334;28;20067;-48
2022/11/10 06:28:59;;;;;;;8.38;4.57;;;;;;;;;;5038352;28;20129;-48
2022/11/10 06:31:27;;;;;;;9.48;4.20;;;;;;;;;;5037177;28;20081;-49
2022/11/10 06:33:56;;;;;;;7.57;4.20;;;;;;;;;;5040410;28;20445;-48
2022/11/10 06:36:35;;;;;;;8.25;4.25;;;;;;;;;;5032474;28;20046;-49
2022/11/10 06:39:03;;;;;;;10.05;4.90;;;;;;;;;;5031850;28;20136;-48
2022/11/10 06:41:32;;;;;;;6.78;3.70;;;;;;;;;;5030044;28;20142;-50
2022/11/10 06:44:03;;;;;;;9.32;4.22;;;;;;;;;;5037196;28;20143;-50
2022/11/10 06:46:31;;;;;;;8.45;4.50;;;;;;;;;;5044160;28;20060;-49
2022/11/10 06:49:01;;;;;;;6.22;3.58;;;;;;;;;;5051011;28;20140;-48
2022/11/10 06:51:33;;;;;;;7.78;4.07;;;;;;;;;;5035636;28;20425;-49
2022/11/10 06:54:01;;;;;;;9.00;4.95;;;;;;;;;;5048847;28;20055;-48
2022/11/10 06:56:31;;;;;;;8.15;3.97;;;;;;;;;;5035645;28;20057;-51
2022/11/10 06:59:00;;;;;;;9.30;4.75;;;;;;;;;;5043705;28;20049;-48
2022/11/10 07:01:28;;;;;;;17.70;4.53;;;;;;;;;;5041185;28;20389;-48
2022/11/10 07:03:54;;;;;;;8.15;5.07;;;;;;;;;;5044176;28;20125;-48
2022/11/10 07:06:21;;;;;;;10.60;5.03;;;;;;;;;;5040284;28;20140;-48
2022/11/10 07:08:54;;;;;;;7.90;4.13;;;;;;;;;;5034269;28;20088;-49
2022/11/10 07:11:24;;;;;;;9.30;4.05;;;;;;;;;;5028887;28;20049;-49
2022/11/10 07:13:52;;;;;;;10.00;5.13;;;;;;;;;;5036609;28;20057;-47
2022/11/10 07:16:21;;;;;;;9.45;5.32;;;;;;;;;;5039101;28;20041;-46
2022/11/10 07:18:49;;;;;;;8.15;4.10;;;;;;;;;;5036727;28;20153;-48
2022/11/10 07:21:19;;;;;;;8.63;4.82;;;;;;;;;;5036611;28;20451;-48
2022/11/10 07:23:49;;;;;;;9.32;4.63;;;;;;;;;;5046074;28;20063;-49
2022/11/10 07:26:20;;;;;;;9.73;4.55;;;;;;;;;;5042516;28;20053;-48
2022/11/10 07:28:49;;;;;;;9.43;4.55;;;;;;;;;;5046536;28;20052;-48
2022/11/10 07:31:17;;;;;;;8.00;4.72;;;;;;;;;;5038862;28;20118;-49
2022/11/10 07:33:46;;;;;;;7.78;4.25;;;;;;;;;;5047072;28;20132;-49
2022/11/10 07:36:14;;;;;;;8.52;4.13;;;;;;;;;;5043882;28;20080;-51
2022/11/10 07:38:44;;;;;;;9.05;4.72;;;;;;;;;;5049278;28;20053;-52
2022/11/10 07:41:12;;;;;;;11.20;4.40;;;;;;;;;;5041071;28;20124;-50
2022/11/10 07:43:45;;;;;;;9.60;4.93;;;;;;;;;;5040766;28;20079;-51
2022/11/10 07:46:12;;;;;;;13.82;5.82;;;;;;;;;;5042614;28;20053;-48
2022/11/10 07:48:42;;;;;;;9.93;4.38;;;;;;;;;;5047288;28;20147;-49
2022/11/10 07:51:10;;;;;;;8.15;3.92;;;;;;;;;;5053987;28;20134;-53
2022/11/10 07:53:38;;;;;;;7.03;3.30;;;;;;;;;;5051845;28;20584;-49
2022/11/10 07:56:06;;;;;;;6.60;3.50;;;;;;;;;;5039490;28;20048;-52
2022/11/10 07:58:34;;;;;;;7.05;3.15;;;;;;;;;;5049314;28;20059;-50
2022/11/10 08:01:04;;;;;;;6.80;3.28;;;;;;;;;;5053127;28;20137;-49
2022/11/10 08:03:31;;;;;;;8.40;3.47;;;;;;;;;;5041836;28;20128;-51
2022/11/10 08:06:01;;;;;;;6.35;3.00;;;;;;;;;;5053216;28;20149;-49
2022/11/10 08:08:29;;;;;;;8.10;3.40;;;;;;;;;;5046067;28;20496;-51
2022/11/10 08:10:57;;;;;;;10.15;3.20;;;;;;;;;;5044588;28;20067;-50
2022/11/10 08:13:26;;;;;;;8.93;3.55;;;;;;;;;;5048819;28;20045;-49
2022/11/10 08:15:53;;;;;;;6.13;3.15;;;;;;;;;;5045584;28;20136;-51
2022/11/10 08:18:25;;;;;;;9.68;3.03;;;;;;;;;;5041587;28;20481;-53
2022/11/10 08:20:55;;;;;;;5.90;2.88;;;;;;;;;;5039123;28;20128;-50
2022/11/10 08:23:25;;;;;;;12.20;3.13;;;;;;;;;;5044175;28;20060;-47
2022/11/10 08:25:52;;;;;;;7.43;2.40;;;;;;;;;;5045599;28;20620;-49
2022/11/10 08:28:20;;;;;;;5.55;2.88;;;;;;;;;;5037517;28;20153;-49
2022/11/10 08:30:48;;;;;;;9.30;2.88;;;;;;;;;;5039196;28;20136;-49
2022/11/10 08:33:16;;;;;;;7.90;2.92;;;;;;;;;;5036134;28;20052;-49
2022/11/10 08:35:52;;;;;;;6.95;2.35;;;;;;;;;;5034825;28;20124;-50
2022/11/10 08:38:20;;;;;;;10.57;3.63;;;;;;;;;;5034002;28;20124;-49
2022/11/10 08:40:48;;;;;;;7.00;3.13;;;;;;;;;;5033519;28;20092;-51
2022/11/10 08:43:17;;;;;;;7.03;2.50;;;;;;;;;;5035986;28;20051;-50
2022/11/10 08:45:45;;;;;;;7.57;2.38;;;;;;;;;;5039634;28;20498;-49
2022/11/10 08:48:14;;;;;;;9.30;2.70;;;;;;;;;;5034534;28;20103;-49
2022/11/10 08:50:42;;;;;;;5.45;2.58;;;;;;;;;;5041805;28;20084;-49
2022/11/10 08:53:23;;;;;;;8.02;2.78;;;;;;;;;;5041285;28;20114;-49
2022/11/10 08:55:52;;;;;;;5.40;2.33;;;;;;;;;;5049850;28;20332;-49
2022/11/10 08:58:21;;;;;;;5.38;2.17;;;;;;;;;;5038519;28;20055;-52
2022/11/10 09:00:51;;;;;;;5.30;2.30;;;;;;;;;;5043659;28;20064;-51
2022/11/10 09:03:19;;;;;;;4.07;2.35;;;;;;;;;;5039623;28;20424;-49
2022/11/10 09:05:48;;;;;;;5.65;2.60;;;;;;;;;;5052235;28;20140;-50
2022/11/10 09:08:29;;;;;;;5.45;2.55;;;;;;;;;;5048962;28;20128;-50
2022/11/10 09:10:57;;;;;;;6.53;2.03;;;;;;;;;;5043013;28;20052;-52
2022/11/10 09:13:24;;;;;;;5.18;2.15;;;;;;;;;;5047956;28;20048;-51
2022/11/10 09:15:52;;;;;;;3.72;2.17;;;;;;;;;;5049491;28;20132;-48
2022/11/10 09:18:20;;;;;;;6.55;2.60;;;;;;;;;;5039632;28;20131;-50
2022/11/10 09:20:50;;;;;;;3.72;2.08;;;;;;;;;;5036332;28;20137;-50
2022/11/10 09:23:31;;;;;;;6.40;2.20;;;;;;;;;;5040481;28;20041;-50
2022/11/10 09:25:57;;;;;;;5.03;1.77;;;;;;;;;;5040380;28;20132;-52
2022/11/10 09:28:25;;;;;;;3.17;1.80;;;;;;;;;;5041727;28;20160;-50
2022/11/10 09:30:52;;;;;;;5.28;2.42;;;;;;;;;;5043310;28;20045;-53
2022/11/10 09:33:19;;;;;;;3.60;2.33;;;;;;;;;;5051732;28;20143;-53
2022/11/10 09:35:47;;;;;;;3.42;1.80;;;;;;;;;;5039932;28;20132;-50
2022/11/10 09:38:15;;;;;;;10.00;2.50;;;;;;;;;;5033595;28;20053;-52
2022/11/10 09:41:01;;;;;;;4.07;1.75;;;;;;;;;;5037607;28;20382;-49
2022/11/10 09:44:06;;;;;;;3.55;1.77;;;;;;;;;;5038920;28;20045;-51
2022/11/10 09:46:36;;;;;;;4.85;1.85;;;;;;;;;;5040904;28;20076;-51
2022/11/10 09:49:09;;;;;;;5.55;1.95;;;;;;;;;;5042401;28;20135;-53
2022/11/10 09:51:41;;;;;;;4.72;1.60;;;;;;;;;;5037526;28;20133;-49
2022/11/10 09:54:20;;;;;;;8.98;3.20;;;;;;;;;;5042656;28;20041;-49
2022/11/10 09:56:55;;;;;;;5.65;1.65;;;;;;;;;;5040998;28;20791;-50
2022/11/10 09:59:25;;;;;;;7.32;1.50;;;;;;;;;;5044909;28;20041;-50
2022/11/10 10:02:01;;;;;;;5.65;1.73;;;;;;;;;;5039945;28;20045;-50
2022/11/10 10:04:39;;;;;;;4.00;1.35;;;;;;;;;;5050208;28;20049;-50
2022/11/10 10:07:09;;;;;;;5.28;1.45;;;;;;;;;;5051101;28;20139;-50
2022/11/10 10:09:48;;;;;;;3.38;1.60;;;;;;;;;;5050676;28;20569;-51
2022/11/10 10:12:24;;;;;;;2.45;1.13;;;;;;;;;;5049783;28;20132;-52
2022/11/10 10:15:00;;;;;;;5.55;1.60;;;;;;;;;;5040552;28;20079;-51
2022/11/10 10:17:35;;;;;;;3.95;1.25;;;;;;;;;;5044977;28;20140;-51
2022/11/10 10:20:17;;;;;;;3.33;1.20;;;;;;;;;;5042993;28;20805;-50
2022/11/10 10:22:51;;;;;;;4.43;1.38;;;;;;;;;;5048048;28;20087;-50
2022/11/10 10:25:21;;;;;;;4.82;1.58;;;;;;;;;;5051236;28;20053;-52
2022/11/10 10:28:02;;;;;;;3.08;1.00;;;;;;;;;;5051542;28;20137;-50
2022/11/10 10:30:32;;;;;;;3.80;1.10;;;;;;;;;;5039376;28;20128;-50
2022/11/10 10:33:03;;;;;;;4.43;1.08;;;;;;;;;;5037696;28;20469;-50
2022/11/10 10:35:30;;;;;;;4.53;1.20;;;;;;;;;;5039708;28;20151;-53
2022/11/10 10:37:59;;;;;;;7.38;1.48;;;;;;;;;;5035709;28;20136;-50
2022/11/10 10:40:26;;;;;;;5.80;1.20;;;;;;;;;;5035900;28;20084;-52
2022/11/10 10:42:59;;;;;;;3.95;1.20;;;;;;;;;;5039736;28;20064;-51
2022/11/10 10:45:31;;;;;;;4.82;1.27;;;;;;;;;;5044329;28;20169;-50
2022/11/10 10:48:00;;;;;;;6.80;1.42;;;;;;;;;;5049897;28;20114;-51
2022/11/10 10:50:37;;;;;;;4.75;1.63;;;;;;;;;;5050534;28;20144;-51
2022/11/10 10:53:22;;;;;;;2.40;0.80;;;;;;;;;;5049164;28;20040;-49
2022/11/10 10:55:54;;;;;;;2.72;0.90;;;;;;;;;;5036839;28;20128;-49
2022/11/10 10:58:23;;;;;;;3.97;0.80;;;;;;;;;;5043429;28;20141;-50
2022/11/10 11:00:52;;;;;;;2.60;0.70;;;;;;;;;;5047878;28;20153;-51
2022/11/10 11:03:38;;;;;;;3.03;0.90;;;;;;;;;;5048801;28;20120;-51
2022/11/10 11:06:07;;;;;;;2.85;0.90;;;;;;;;;;5054915;28;20060;-51
2022/11/10 11:08:35;;;;;;;3.60;0.90;;;;;;;;;;5050612;28;20131;-51
2022/11/10 11:11:09;;;;;;;2.40;0.60;;;;;;;;;;5047181;28;20049;-49
2022/11/10 11:13:39;;;;;;;2.97;0.80;;;;;;;;;;5054065;28;20131;-50
2022/11/10 11:16:11;;;;;;;1.50;0.70;;;;;;;;;;5054440;28;20076;-48
2022/11/10 11:18:39;;;;;;;1.85;0.65;;;;;;;;;;5053581;28;20053;-49
2022/11/10 11:21:11;;;;;;;4.25;0.80;;;;;;;;;;5052164;28;20060;-49
2022/11/10 11:23:45;;;;;;;3.17;0.77;;;;;;;;;;5047497;28;20037;-49
2022/11/10 11:26:15;;;;;;;4.65;1.10;;;;;;;;;;5047194;28;20136;-53
2022/11/10 11:28:54;;;;;;;2.25;0.80;;;;;;;;;;5044374;28;20060;-53
2022/11/10 11:31:29;;;;;;;6.53;2.45;;;;;;;;;;5038665;28;20083;-52
2022/11/10 11:34:01;;;;;;;2.47;0.90;;;;;;;;;;5048114;28;20056;-54
2022/11/10 11:36:35;;;;;;;1.85;0.80;;;;;;;;;;5039241;28;20128;-50
2022/11/10 11:39:08;;;;;;;1.55;0.80;;;;;;;;;;5050131;28;20172;-50
2022/11/10 11:41:39;;;;;;;4.63;0.82;;;;;;;;;;5053939;28;20512;-49
2022/11/10 11:44:28;;;;;;;4.30;1.00;;;;;;;;;;5053524;28;20083;-52
2022/11/10 11:47:00;;;;;;;4.40;0.85;;;;;;;;;;5047882;28;20135;-55
2022/11/10 11:49:42;;;;;;;2.65;0.90;;;;;;;;;;5051363;28;20156;-53
2022/11/10 11:52:16;;;;;;;2.97;0.90;;;;;;;;;;5050539;28;20100;-53
2022/11/10 11:54:56;;;;;;;7.28;1.52;;;;;;;;;;5052991;28;20045;-49
2022/11/10 11:57:30;;;;;;;4.40;1.20;;;;;;;;;;5053083;28;20051;-51
2022/11/10 12:00:09;;;;;;;1.50;0.60;;;;;;;;;;5050096;28;20604;-50
2022/11/10 12:03:01;;;;;;;4.97;1.10;;;;;;;;;;5043561;28;20049;-51
2022/11/10 12:05:41;;;;;;;10.70;1.75;;;;;;;;;;5029051;28;20549;-51
2022/11/10 12:08:17;;;;;;;4.97;1.08;;;;;;;;;;5047135;28;20052;-50
2022/11/10 12:11:03;;;;;;;2.50;0.85;;;;;;;;;;5047953;28;20128;-52
2022/11/10 12:13:52;;;;;;;2.42;1.08;;;;;;;;;;5047759;28;20119;-53
2022/11/10 12:16:24;;;;;;;3.03;1.05;;;;;;;;;;5038417;28;20052;-53
2022/11/10 12:19:00;;;;;;;5.45;1.45;;;;;;;;;;5041737;28;20060;-51
2022/11/10 12:21:33;;;;;;;5.03;1.65;;;;;;;;;;5034636;28;20045;-52
2022/11/10 12:24:21;;;;;;;4.93;0.80;;;;;;;;;;5045954;28;20103;-54
2022/11/10 12:26:51;;;;;;;4.75;0.90;;;;;;;;;;5043915;28;20049;-51
2022/11/10 12:29:32;;;;;;;3.47;1.15;;;;;;;;;;5048593;28;20129;-49
2022/11/10 12:32:10;;;;;;;5.68;1.08;;;;;;;;;;5044345;28;20040;-48
2022/11/10 12:34:41;;;;;;;4.15;1.10;;;;;;;;;;5040450;28;20119;-50
2022/11/10 12:37:13;;;;;;;2.00;0.80;;;;;;;;;;5049797;28;20053;-50
2022/11/10 12:39:46;;;;;;;3.95;1.02;;;;;;;;;;5048173;28;20056;-46
2022/11/10 12:42:17;;;;;;;4.18;1.08;;;;;;;;;;5041453;28;20141;-51
2022/11/10 12:44:49;;;;;;;5.97;1.25;;;;;;;;;;5051894;28;20049;-50
2022/11/10 12:47:30;;;;;;;4.28;0.88;;;;;;;;;;5045046;28;20136;-52
2022/11/10 12:50:06;;;;;;;4.45;0.90;;;;;;;;;;5038403;28;20059;-48
2022/11/10 12:52:36;;;;;;;5.10;1.40;;;;;;;;;;5042467;28;20111;-49
2022/11/10 12:55:07;;;;;;;4.53;0.98;;;;;;;;;;5049380;28;20075;-51
2022/11/10 12:57:35;;;;;;;8.65;1.35;;;;;;;;;;5048672;28;20453;-51
2022/11/10 13:00:05;;;;;;;6.55;1.02;;;;;;;;;;5045834;28;20118;-48
2022/11/10 13:02:39;;;;;;;3.38;1.30;;;;;;;;;;5047189;28;20109;-49
2022/11/10 13:05:09;;;;;;;4.57;1.00;;;;;;;;;;5049408;28;20393;-50
2022/11/10 13:07:36;;;;;;;5.47;1.10;;;;;;;;;;5052364;28;20135;-49
2022/11/10 13:10:18;;;;;;;4.93;1.05;;;;;;;;;;5044369;28;20541;-49
2022/11/10 13:12:58;;;;;;;9.40;1.23;;;;;;;;;;5048576;28;20551;-50
2022/11/10 13:15:59;;;;;;;5.53;1.20;;;;;;;;;;5045414;28;20110;-50
2022/11/10 13:18:45;;;;;;;3.33;1.50;;;;;;;;;;4982049;28;20125;-53
2022/11/10 13:21:14;;;;;;;2.60;0.70;;;;;;;;;;4975253;28;20470;-51
2022/11/10 13:24:11;;;;;;;7.97;1.83;;;;;;;;;;4987592;28;20591;-50
2022/11/10 13:26:57;;;;;;;3.00;0.75;;;;;;;;;;4980483;28;20051;-49
2022/11/10 13:29:42;;;;;;;3.22;0.80;;;;;;;;;;4981099;28;20524;-48
2022/11/10 13:32:29;;;;;;;5.07;1.30;;;;;;;;;;4979578;28;20054;-48
2022/11/10 13:35:11;;;;;;;3.67;1.00;;;;;;;;;;4981539;28;20054;-52
2022/11/10 13:37:49;;;;;;;5.00;1.00;;;;;;;;;;4979051;28;20511;-49
2022/11/10 13:40:28;;;;;;;4.10;1.00;;;;;;;;;;4986547;28;20193;-49
2022/11/10 13:43:12;;;;;;;5.60;1.63;;;;;;;;;;4985889;28;20528;-49
2022/11/10 13:45:42;;;;;;;5.97;1.80;;;;;;;;;;4981927;28;20553;-50
2022/11/10 13:48:19;;;;;;;5.93;0.88;;;;;;;;;;4984663;28;20141;-50
2022/11/10 13:50:54;;;;;;;6.72;1.02;;;;;;;;;;4988857;28;20054;-50
2022/11/10 13:53:21;;;;;;;;;;;;;;;;;;5040013;28;20361;-52
2022/11/10 13:56:00;;;;;;;4.45;0.85;;;;;;;;;;5050496;28;20011;-49
2022/11/10 13:58:29;;;;;;;5.85;1.48;;;;;;;;;;5044863;28;20139;-49
2022/11/10 14:01:16;;;;;;;4.63;1.27;;;;;;;;;;5050886;28;20078;-51
2022/11/10 14:04:07;;;;;;;3.80;1.52;;;;;;;;;;5047615;28;20132;-52
2022/11/10 14:06:44;;;;;;;9.55;1.88;;;;;;;;;;5027744;28;20559;-50
2022/11/10 14:09:39;;;;;;;12.18;2.25;;;;;;;;;;5050577;28;20144;-51
2022/11/10 14:12:15;;;;;;;9.15;2.03;;;;;;;;;;5049268;28;20089;-52
2022/11/10 14:14:50;;;;;;;9.90;1.38;;;;;;;;;;5046117;28;20059;-49
2022/11/10 14:17:17;;;;;;;;;;;;;;;;;;5047712;28;20128;-48
2022/11/10 14:19:45;;;;;;;8.43;1.48;;;;;;;;;;5044925;28;19955;-50
2022/11/10 14:22:37;;;;;;;11.68;1.83;;;;;;;;;;5038119;28;20055;-49
2022/11/10 14:25:06;;;;;;;6.78;1.30;;;;;;;;;;5045168;28;20128;-50
2022/11/10 14:27:35;;;;;;;13.90;2.03;;;;;;;;;;5041471;28;20102;-51
2022/11/10 14:30:07;;;;;;;8.45;1.40;;;;;;;;;;5051472;28;20430;-49
2022/11/10 14:32:38;;;;;;;6.75;1.65;;;;;;;;;;5038736;28;20144;-49
2022/11/10 14:35:08;;;;;;;6.47;1.40;;;;;;;;;;5044241;28;20174;-50
2022/11/10 14:37:38;;;;;;;11.52;1.55;;;;;;;;;;5040405;28;20124;-52
2022/11/10 14:40:14;;;;;;;4.55;1.30;;;;;;;;;;5051296;28;20604;-53
2022/11/10 14:42:47;;;;;;;7.93;0.98;;;;;;;;;;5041757;28;20053;-49
2022/11/10 14:45:18;;;;;;;3.78;1.42;;;;;;;;;;5040682;28;20049;-49
2022/11/10 14:47:52;;;;;;;3.63;1.08;;;;;;;;;;5037854;28;20053;-48
2022/11/10 14:50:24;;;;;;;3.83;1.10;;;;;;;;;;5046590;28;20378;-48
2022/11/10 14:53:01;;;;;;;5.30;1.38;;;;;;;;;;5042968;28;20138;-49
2022/11/10 14:55:30;;;;;;;8.10;1.17;;;;;;;;;;5036022;28;20071;-48
2022/11/10 14:58:03;;;;;;;5.60;1.52;;;;;;;;;;5050713;28;20063;-52
2022/11/10 15:00:34;;;;;;;4.10;1.55;;;;;;;;;;5036976;28;20437;-43
2022/11/10 15:03:02;;;;;;;5.15;1.30;;;;;;;;;;5048708;28;20075;-48
2022/11/10 15:05:31;;;;;;;6.68;1.88;;;;;;;;;;5044448;28;20726;-46
2022/11/10 15:07:59;;;;;;;4.63;1.42;;;;;;;;;;5045462;28;20508;-48
2022/11/10 15:10:28;;;;;;;6.57;1.67;;;;;;;;;;5045915;28;20059;-47
2022/11/10 15:13:13;;;;;;;7.38;2.03;;;;;;;;;;5047751;28;20127;-48
2022/11/10 15:15:52;;;;;;;7.07;1.58;;;;;;;;;;5039324;28;20055;-50
2022/11/10 15:18:28;;;;;;;4.40;1.67;;;;;;;;;;5049965;28;20059;-48
2022/11/10 15:21:09;;;;;;;5.07;1.92;;;;;;;;;;5040981;28;20060;-49
2022/11/10 15:23:38;;;;;;;6.65;1.48;;;;;;;;;;5049329;28;20041;-51
2022/11/10 15:26:07;;;;;;;5.90;1.70;;;;;;;;;;5050791;28;20049;-50
2022/11/10 15:28:36;;;;;;;3.88;1.92;;;;;;;;;;5049147;28;20131;-50